Time;durP1;ratioP1;P1;durP2;ratioP2;P2;SDS_P1;SDS_P2;PMS_P1;PMS_P2;Temp;Humidity;BMP_temperature;BMP_pressure;BME280_temperature;BME280_humidity;BME280_pressure;Samples;Min_cycle;Max_cycle;Signal;HPM_P1;HPM_P2
2022/05/17 00:00:03;;;;;;;8.55;6.47;;;;;;;17.46;64.50;99004.50;4973062;28;20027;-51
2022/05/17 00:02:29;;;;;;;10.00;6.07;;;;;;;17.41;64.59;99006.28;4971747;28;20019;-50
2022/05/17 00:04:55;;;;;;;11.38;5.68;;;;;;;17.39;64.87;98997.75;4973028;28;20030;-51
2022/05/17 00:07:20;;;;;;;12.52;6.03;;;;;;;17.33;64.89;98997.63;4971644;28;20105;-50
2022/05/17 00:09:46;;;;;;;12.20;6.00;;;;;;;17.32;64.84;98998.66;4987816;28;20110;-51
2022/05/17 00:12:12;;;;;;;9.80;5.60;;;;;;;17.28;65.11;99008.13;4972905;28;20101;-51
2022/05/17 00:14:39;;;;;;;8.88;5.95;;;;;;;17.27;64.99;99003.09;4972957;28;20038;-51
2022/05/17 00:17:05;;;;;;;11.75;6.35;;;;;;;17.25;64.84;99005.19;4971591;28;20054;-51
2022/05/17 00:19:31;;;;;;;9.15;5.10;;;;;;;17.23;64.85;99005.41;4971638;28;20039;-51
2022/05/17 00:21:57;;;;;;;7.43;5.50;;;;;;;17.19;64.92;99001.63;4971537;28;20074;-50
2022/05/17 00:24:25;;;;;;;10.23;5.85;;;;;;;17.14;65.09;99004.16;4972791;28;20114;-51
2022/05/17 00:26:52;;;;;;;11.38;5.90;;;;;;;17.08;64.98;99007.75;4971517;28;20114;-51
2022/05/17 00:29:18;;;;;;;11.00;5.38;;;;;;;17.04;65.08;99009.25;4972713;28;20113;-51
2022/05/17 00:31:44;;;;;;;12.25;5.32;;;;;;;16.99;65.42;99009.16;4972732;28;20103;-51
2022/05/17 00:34:10;;;;;;;9.77;4.88;;;;;;;16.94;65.32;99010.69;4972727;28;20034;-51
2022/05/17 00:36:36;;;;;;;10.88;5.07;;;;;;;16.91;65.41;99011.13;4972742;28;20031;-50
2022/05/17 00:39:02;;;;;;;10.43;5.38;;;;;;;16.90;65.22;99008.72;4971417;28;20038;-51
2022/05/17 00:41:28;;;;;;;12.07;5.80;;;;;;;16.90;65.23;99014.84;4972694;28;20397;-51
2022/05/17 00:46:58;;;;;;;11.27;5.63;;;;;;;16.79;65.62;99007.66;4972630;28;20109;-51
2022/05/17 00:49:39;;;;;;;11.23;5.70;;;;;;;16.76;65.91;99002.81;4972573;28;20378;-51
2022/05/17 00:52:16;;;;;;;10.30;6.32;;;;;;;16.69;65.87;99005.59;4972571;28;20077;-51
2022/05/17 00:54:44;;;;;;;12.45;6.20;;;;;;;16.62;66.27;99006.75;4974494;28;20019;-51
2022/05/17 00:57:42;;;;;;;13.05;5.80;;;;;;;16.59;66.65;99005.38;4996223;28;20100;-50
2022/05/17 01:00:12;;;;;;;11.80;5.43;;;;;;;16.55;66.57;99001.59;4997494;28;20041;-51
2022/05/17 01:02:41;;;;;;;10.95;5.97;;;;;;;16.55;66.24;99009.53;5015133;28;20030;-50
2022/05/17 01:05:08;;;;;;;13.23;5.90;;;;;;;16.55;66.31;98998.94;4997382;28;20057;-51
2022/05/17 01:07:41;;;;;;;13.43;5.60;;;;;;;16.53;66.29;99008.97;5014946;28;20377;-51
2022/05/17 01:10:08;;;;;;;12.95;6.07;;;;;;;16.47;66.25;99008.03;5013639;28;20038;-51
2022/05/17 01:12:41;;;;;;;11.80;5.93;;;;;;;16.42;66.66;99009.75;5015190;28;20021;-50
2022/05/17 01:15:09;;;;;;;11.32;5.90;;;;;;;16.36;66.80;99007.00;4997207;28;20496;-51
2022/05/17 01:17:37;;;;;;;15.20;6.15;;;;;;;16.32;66.92;99005.84;4997118;28;20021;-51
2022/05/17 01:20:08;;;;;;;9.35;5.63;;;;;;;16.35;67.08;99004.56;4997055;28;20049;-51
2022/05/17 01:22:34;;;;;;;10.20;6.05;;;;;;;16.38;66.59;99004.13;5014852;28;20201;-50
2022/05/17 01:25:00;;;;;;;10.98;5.97;;;;;;;16.34;66.45;99009.06;4997026;28;20127;-51
2022/05/17 01:27:32;;;;;;;13.50;7.93;;;;;;;16.31;66.66;99003.44;5014697;28;20030;-51
2022/05/17 01:29:58;;;;;;;13.25;6.00;;;;;;;16.33;66.66;99002.16;4996817;28;20113;-51
2022/05/17 01:32:24;;;;;;;11.52;5.80;;;;;;;16.27;66.56;99008.38;4996896;28;20112;-50
2022/05/17 01:34:50;;;;;;;11.20;5.88;;;;;;;16.28;66.57;98999.41;4996919;28;20117;-50
2022/05/17 01:37:17;;;;;;;10.82;5.93;;;;;;;16.24;66.54;99000.06;5014443;28;20507;-51
2022/05/17 01:39:44;;;;;;;8.63;5.35;;;;;;;16.22;66.56;98995.03;5014432;28;20073;-50
2022/05/17 01:42:12;;;;;;;10.48;5.30;;;;;;;16.23;66.45;98991.31;5014322;28;20026;-51
2022/05/17 01:44:41;;;;;;;8.48;5.30;;;;;;;16.23;66.02;98996.63;5014338;28;20022;-51
2022/05/17 01:47:07;;;;;;;12.20;5.78;;;;;;;16.23;65.96;98996.63;4996589;28;20530;-51
2022/05/17 01:49:33;;;;;;;12.23;5.75;;;;;;;16.23;65.99;98998.47;4996480;28;20066;-50
2022/05/17 01:51:59;;;;;;;11.68;5.68;;;;;;;16.25;66.01;98993.75;5014104;28;20022;-51
2022/05/17 01:54:24;;;;;;;11.38;6.10;;;;;;;16.33;65.88;98985.47;5014148;28;20105;-51
2022/05/17 01:56:50;;;;;;;9.93;5.43;;;;;;;16.37;65.93;98994.56;4996223;28;20046;-50
2022/05/17 01:59:17;;;;;;;11.52;6.20;;;;;;;16.36;65.91;98998.25;5014012;28;20048;-51
2022/05/17 02:01:44;;;;;;;9.27;5.85;;;;;;;16.35;65.59;98994.78;5014036;28;20128;-50
2022/05/17 02:04:11;;;;;;;11.45;5.53;;;;;;;16.38;65.41;98994.34;4996343;28;20121;-50
2022/05/17 02:06:37;;;;;;;13.82;5.28;;;;;;;16.43;65.17;98996.28;5013880;28;20026;-51
2022/05/17 02:09:03;;;;;;;9.43;4.65;;;;;;;16.51;65.04;98995.13;5012967;28;20033;-51
2022/05/17 02:11:29;;;;;;;13.52;5.43;;;;;;;16.55;64.50;98993.63;4996133;28;20067;-50
2022/05/17 02:13:55;;;;;;;8.55;4.85;;;;;;;16.55;64.51;98989.13;5013801;28;20022;-51
2022/05/17 02:16:21;;;;;;;13.20;5.40;;;;;;;16.55;64.32;98993.63;5013669;28;20068;-51
2022/05/17 02:18:47;;;;;;;8.60;5.05;;;;;;;16.46;64.26;98998.47;5013922;28;20026;-51
2022/05/17 02:21:13;;;;;;;10.00;5.15;;;;;;;16.40;64.42;98998.56;5013586;28;20112;-51
2022/05/17 02:23:39;;;;;;;10.65;5.10;;;;;;;16.38;64.40;99001.47;5013576;28;20440;-51
2022/05/17 02:26:05;;;;;;;13.98;5.82;;;;;;;16.34;64.64;99009.06;4995918;28;20520;-51
2022/05/17 02:28:31;;;;;;;12.52;5.45;;;;;;;16.34;64.70;99002.97;5013431;28;20034;-51
2022/05/17 02:30:57;;;;;;;12.45;5.70;;;;;;;16.30;65.00;98999.19;5013405;28;20442;-50
2022/05/17 02:33:23;;;;;;;15.93;5.82;;;;;;;16.31;64.78;98998.94;5013408;28;20061;-51
2022/05/17 02:35:49;;;;;;;11.48;5.00;;;;;;;16.34;64.66;99000.34;4995983;28;20026;-51
2022/05/17 02:38:15;;;;;;;9.60;5.63;;;;;;;16.36;64.53;98993.75;5013269;28;20025;-51
2022/05/17 02:40:41;;;;;;;17.38;5.72;;;;;;;16.34;64.50;99002.97;5013266;28;20030;-51
2022/05/17 02:43:11;;;;;;;8.85;5.13;;;;;;;16.31;64.41;99008.72;5013193;28;20487;-51
2022/05/17 02:45:36;;;;;;;10.15;5.63;;;;;;;16.29;64.51;99001.00;5013218;28;20033;-51
2022/05/17 02:48:03;;;;;;;14.93;5.78;;;;;;;16.25;64.48;99001.69;5013000;28;20029;-51
2022/05/17 02:50:28;;;;;;;17.48;6.40;;;;;;;16.15;64.97;98999.59;5013069;28;20084;-51
2022/05/17 02:52:54;;;;;;;11.43;6.47;;;;;;;16.08;65.25;99007.66;5013029;28;20423;-51
2022/05/17 02:55:21;;;;;;;10.35;5.80;;;;;;;16.02;65.63;98999.81;4985738;28;20047;-51
2022/05/17 02:57:47;;;;;;;16.98;6.03;;;;;;;16.00;65.68;99008.00;4973995;28;20405;-51
2022/05/17 03:00:15;;;;;;;10.32;5.15;;;;;;;16.02;65.51;99005.94;4972597;28;20046;-50
2022/05/17 03:02:42;;;;;;;13.98;5.13;;;;;;;16.01;65.43;99006.94;4973919;28;20026;-50
2022/05/17 03:05:09;;;;;;;16.30;7.30;;;;;;;16.00;65.45;99013.28;4972453;28;20018;-50
2022/05/17 03:07:35;;;;;;;7.82;5.68;;;;;;;15.95;65.42;99002.56;4973813;28;20050;-51
2022/05/17 03:10:01;;;;;;;12.45;5.15;;;;;;;15.89;65.75;99006.91;4972389;28;20170;-50
2022/05/17 03:12:27;;;;;;;12.57;6.55;;;;;;;15.83;65.82;99004.38;4973750;28;20102;-50
2022/05/17 03:14:53;;;;;;;12.80;6.32;;;;;;;15.74;66.03;99004.72;4973652;28;20027;-50
2022/05/17 03:17:19;;;;;;;11.38;5.15;;;;;;;15.69;66.54;99001.88;4973649;28;20026;-50
2022/05/17 03:19:45;;;;;;;15.20;6.35;;;;;;;15.65;66.74;98999.94;4974175;28;20076;-50
2022/05/17 03:22:11;;;;;;;9.93;6.78;;;;;;;15.61;66.65;99001.41;4973588;28;20401;-50
2022/05/17 03:24:38;;;;;;;10.93;5.90;;;;;;;15.56;67.07;99007.38;4973560;28;20023;-50
2022/05/17 03:27:04;;;;;;;14.00;6.53;;;;;;;15.49;67.19;99001.38;4973494;28;20031;-50
2022/05/17 03:29:30;;;;;;;15.48;6.43;;;;;;;15.42;67.50;99008.59;4973379;28;20459;-50
2022/05/17 03:31:56;;;;;;;9.82;5.78;;;;;;;15.40;67.58;99002.72;4973399;28;20121;-50
2022/05/17 03:34:22;;;;;;;12.35;6.30;;;;;;;15.40;67.35;99010.66;4972140;28;20115;-51
2022/05/17 03:36:48;;;;;;;12.35;6.55;;;;;;;15.38;67.51;99014.31;4973334;28;20110;-50
2022/05/17 03:39:14;;;;;;;12.93;6.30;;;;;;;15.34;67.68;99009.72;4973636;28;20066;-50
2022/05/17 03:41:40;;;;;;;14.77;5.65;;;;;;;15.38;67.42;99006.38;4973335;28;20125;-50
2022/05/17 03:44:06;;;;;;;15.75;6.60;;;;;;;15.43;67.45;99005.72;4973224;28;20077;-50
2022/05/17 03:46:32;;;;;;;13.40;6.35;;;;;;;15.45;67.45;99010.78;4973244;28;20513;-50
2022/05/17 03:49:00;;;;;;;10.32;5.97;;;;;;;15.44;67.28;99003.91;4973203;28;20026;-50
2022/05/17 03:51:27;;;;;;;15.77;5.90;;;;;;;15.43;67.51;99007.56;4971906;28;20023;-51
2022/05/17 03:53:53;;;;;;;12.73;5.80;;;;;;;15.36;67.29;99013.75;4971848;28;20027;-50
2022/05/17 03:56:20;;;;;;;10.57;5.90;;;;;;;15.36;67.50;99008.44;4971606;28;20054;-51
2022/05/17 03:58:45;;;;;;;11.50;6.13;;;;;;;15.33;67.42;99008.91;4971781;28;20027;-51
2022/05/17 04:01:12;;;;;;;9.25;5.40;;;;;;;15.30;67.84;99008.53;4971757;28;20026;-50
2022/05/17 04:03:39;;;;;;;7.22;6.13;;;;;;;15.24;67.92;99004.94;4971732;28;20031;-51
2022/05/17 04:06:05;;;;;;;12.90;5.90;;;;;;;15.20;67.86;99003.78;4973000;28;20433;-51
2022/05/17 04:08:31;;;;;;;10.07;5.70;;;;;;;15.15;68.35;99008.91;4972996;28;20222;-51
2022/05/17 04:10:57;;;;;;;13.75;7.18;;;;;;;15.17;68.08;99004.22;4972947;28;20569;-50
2022/05/17 04:13:29;;;;;;;19.30;6.00;;;;;;;15.21;68.08;99002.72;4971644;28;20435;-51
2022/05/17 04:15:56;;;;;;;12.40;6.53;;;;;;;15.21;68.20;99005.38;4972934;28;20498;-50
2022/05/17 04:18:22;;;;;;;18.50;6.43;;;;;;;15.23;68.40;99011.28;4972915;28;20035;-51
2022/05/17 04:20:48;;;;;;;18.52;6.28;;;;;;;15.25;68.22;99003.09;4972882;28;20497;-51
2022/05/17 04:23:14;;;;;;;12.07;6.63;;;;;;;15.27;68.23;99004.53;4972874;28;20054;-51
2022/05/17 04:25:40;;;;;;;11.15;5.68;;;;;;;15.40;68.00;99005.38;4972800;28;20563;-51
2022/05/17 04:28:06;;;;;;;10.90;6.03;;;;;;;15.53;67.56;99000.72;4971414;28;20034;-50
2022/05/17 04:30:32;;;;;;;11.77;5.82;;;;;;;15.69;66.92;99004.53;4971476;28;20030;-51
2022/05/17 04:33:01;;;;;;;12.25;6.38;;;;;;;15.80;66.62;99007.50;4976489;28;20019;-51
2022/05/17 04:35:27;;;;;;;17.75;5.95;;;;;;;15.92;66.07;99013.63;4975249;28;20105;-51
2022/05/17 04:37:53;;;;;;;18.83;5.90;;;;;;;16.14;65.59;99009.41;4976549;28;20114;-50
2022/05/17 04:40:19;;;;;;;15.57;6.43;;;;;;;16.51;64.58;99011.03;4976510;28;20034;-51
2022/05/17 04:42:47;;;;;;;12.35;6.10;;;;;;;17.04;63.38;99004.75;4975100;28;20039;-51
2022/05/17 04:45:15;;;;;;;20.27;6.53;;;;;;;17.81;61.43;99010.69;4976421;28;20106;-51
2022/05/17 04:47:43;;;;;;;16.95;6.43;;;;;;;18.53;59.53;99010.81;4976347;28;20408;-51
2022/05/17 04:50:11;;;;;;;15.32;5.90;;;;;;;19.02;57.56;99010.16;4974918;28;20027;-51
2022/05/17 04:52:37;;;;;;;21.52;6.90;;;;;;;19.28;56.43;99010.44;4976298;28;20026;-51
2022/05/17 04:55:03;;;;;;;19.25;5.97;;;;;;;19.25;55.90;99008.28;4974662;28;20049;-51
2022/05/17 04:57:29;;;;;;;13.65;5.30;;;;;;;18.99;56.56;99023.13;4976219;28;20023;-51
2022/05/17 04:59:57;;;;;;;22.35;6.45;;;;;;;19.11;56.77;99013.97;4976159;28;20165;-51
2022/05/17 05:02:23;;;;;;;19.45;6.05;;;;;;;19.37;56.03;99014.25;4976013;28;20102;-51
2022/05/17 05:04:48;;;;;;;13.05;5.22;;;;;;;19.56;55.39;99014.75;4976003;28;20026;-51
2022/05/17 05:07:14;;;;;;;18.42;5.80;;;;;;;19.92;54.74;99028.41;4976011;28;20030;-51
2022/05/17 05:09:40;;;;;;;16.85;7.05;;;;;;;20.47;53.53;99015.78;4974569;28;20492;-51
2022/05/17 05:12:06;;;;;;;20.40;5.82;;;;;;;20.99;51.49;99016.88;4974647;28;20031;-51
2022/05/17 05:14:32;;;;;;;17.25;6.25;;;;;;;21.30;50.60;99021.25;4975953;28;20102;-51
2022/05/17 05:16:58;;;;;;;16.45;5.47;;;;;;;21.65;49.64;99019.78;4975821;28;20107;-50
2022/05/17 05:19:24;;;;;;;22.60;6.30;;;;;;;22.11;48.46;99022.50;4975864;28;20038;-51
2022/05/17 05:21:50;;;;;;;21.77;7.03;;;;;;;22.44;47.66;99020.34;4975728;28;20030;-51
2022/05/17 05:24:15;;;;;;;11.98;4.70;;;;;;;22.72;46.94;99021.63;4974412;28;20033;-51
2022/05/17 05:26:41;;;;;;;20.80;5.95;;;;;;;23.02;45.70;99021.81;4974338;28;20493;-51
2022/05/17 05:29:08;;;;;;;17.60;5.53;;;;;;;23.11;45.60;99023.66;4975564;28;20504;-51
2022/05/17 05:31:34;;;;;;;23.38;6.28;;;;;;;23.01;45.60;99017.53;4975559;28;20049;-51
2022/05/17 05:34:00;;;;;;;21.52;6.15;;;;;;;22.95;45.72;99019.41;4975504;28;20019;-51
2022/05/17 05:36:28;;;;;;;33.10;6.68;;;;;;;23.30;45.33;99031.06;4975532;28;20022;-51
2022/05/17 05:38:54;;;;;;;13.70;5.10;;;;;;;23.69;44.45;99024.97;4975469;28;20039;-51
2022/05/17 05:41:20;;;;;;;17.77;5.88;;;;;;;24.17;43.55;99032.41;4975401;28;20019;-51
2022/05/17 05:43:46;;;;;;;14.63;5.90;;;;;;;24.76;42.31;99034.00;4974202;28;20030;-51
2022/05/17 05:46:12;;;;;;;20.70;5.70;;;;;;;25.39;41.14;99032.19;4975300;28;20105;-51
2022/05/17 05:48:38;;;;;;;17.77;6.45;;;;;;;25.99;39.89;99027.03;4973898;28;20109;-49
2022/05/17 05:51:04;;;;;;;16.05;6.15;;;;;;;26.43;38.80;99028.44;4975135;28;20027;-49
2022/05/17 05:53:30;;;;;;;13.80;5.90;;;;;;;26.90;37.86;99020.31;4973937;28;20065;-48
2022/05/17 05:56:01;;;;;;;20.95;5.65;;;;;;;27.22;37.32;99023.97;4996549;28;20139;-47
2022/05/17 05:58:34;;;;;;;12.48;4.95;;;;;;;27.63;36.28;99028.50;5014052;28;20026;-49
2022/05/17 06:01:00;;;;;;;26.40;6.32;;;;;;;27.91;36.23;99023.84;5014065;28;20029;-49
2022/05/17 06:03:27;;;;;;;11.85;4.53;;;;;;;28.49;35.14;99024.78;5014009;28;20014;-49
2022/05/17 06:05:53;;;;;;;20.27;5.63;;;;;;;29.03;33.52;99017.34;5013914;28;20075;-49
2022/05/17 06:08:20;;;;;;;17.65;5.07;;;;;;;29.42;32.83;99017.63;4996204;28;20029;-48
2022/05/17 06:10:45;;;;;;;13.30;5.50;;;;;;;29.60;32.70;99016.50;5013858;28;20042;-49
2022/05/17 06:13:14;;;;;;;18.60;6.28;;;;;;;29.94;32.35;99020.34;5013822;28;20029;-48
2022/05/17 06:15:40;;;;;;;15.73;5.40;;;;;;;30.52;31.43;99017.34;5013714;28;20033;-50
2022/05/17 06:18:07;;;;;;;14.38;6.35;;;;;;;30.97;30.87;99020.34;4996066;28;20161;-49
2022/05/17 06:20:35;;;;;;;21.88;6.45;;;;;;;31.77;29.81;99019.44;4979906;28;20036;-49
2022/05/17 06:23:02;;;;;;;30.65;6.15;;;;;;;32.59;29.10;99016.06;5013644;28;20686;-48
2022/05/17 06:25:27;;;;;;;14.10;4.90;;;;;;;33.50;27.20;99014.13;5012198;28;20033;-49
2022/05/17 06:27:54;;;;;;;27.55;6.30;;;;;;;33.91;26.51;99018.44;5013390;28;20026;-49
2022/05/17 06:30:20;;;;;;;28.25;6.80;;;;;;;34.21;26.53;99010.69;5013514;28;20289;-50
2022/05/17 06:32:46;;;;;;;32.10;7.85;;;;;;;34.93;25.52;99012.44;5013732;28;20108;-49
2022/05/17 06:35:12;;;;;;;44.70;9.40;;;;;;;35.71;24.47;99012.50;5013325;28;20021;-50
2022/05/17 06:37:39;;;;;;;21.92;5.82;;;;;;;36.50;23.59;99002.19;5013362;28;20116;-48
2022/05/17 06:40:06;;;;;;;26.52;6.40;;;;;;;36.92;22.58;99009.50;4995638;28;20021;-50
2022/05/17 06:42:33;;;;;;;30.23;7.18;;;;;;;37.21;22.77;99002.50;5013249;28;20022;-49
2022/05/17 06:44:59;;;;;;;32.65;6.13;;;;;;;37.39;22.62;99010.94;5013201;28;20049;-50
2022/05/17 06:47:26;;;;;;;27.67;5.75;;;;;;;37.51;22.00;99010.69;5013142;28;20030;-49
2022/05/17 06:49:53;;;;;;;24.13;5.43;;;;;;;37.88;21.91;99006.41;4995370;28;20022;-49
2022/05/17 06:52:22;;;;;;;26.70;6.63;;;;;;;38.28;21.65;99013.84;5013055;28;20076;-50
2022/05/17 06:54:49;;;;;;;35.10;6.97;;;;;;;38.34;21.58;99008.81;5012317;28;20044;-49
2022/05/17 06:57:15;;;;;;;22.65;5.38;;;;;;;38.34;21.58;99011.56;5013022;28;20065;-49
2022/05/17 06:59:43;;;;;;;30.88;5.30;;;;;;;38.27;21.48;99012.25;4995249;28;20033;-49
2022/05/17 07:02:09;;;;;;;24.90;5.28;;;;;;;38.49;21.31;99010.47;5012916;28;20022;-50
2022/05/17 07:04:35;;;;;;;27.58;5.85;;;;;;;38.79;20.90;99014.25;5012876;28;20395;-49
2022/05/17 07:07:01;;;;;;;25.67;6.40;;;;;;;38.95;20.73;99017.47;5012811;28;20022;-50
2022/05/17 07:09:28;;;;;;;37.22;6.93;;;;;;;38.94;20.26;99015.94;5012720;28;20033;-50
2022/05/17 07:14:39;;;;;;;21.27;5.70;;;;;;;38.53;21.25;99011.31;5012997;28;20036;-50
2022/05/17 07:17:06;;;;;;;23.55;5.82;;;;;;;38.15;21.26;99015.28;5012607;28;20033;-50
2022/05/17 07:19:33;;;;;;;60.25;8.77;;;;;;;37.97;21.68;99015.91;4994888;28;20084;-49
2022/05/17 07:22:03;;;;;;;23.98;4.82;;;;;;;38.02;21.22;99017.50;5012531;28;20510;-49
2022/05/17 07:24:31;;;;;;;28.00;6.22;;;;;;;38.03;21.52;99012.81;5012569;28;20581;-49
2022/05/17 07:26:58;;;;;;;32.78;5.78;;;;;;;38.17;20.83;99007.47;5013024;28;20033;-49
2022/05/17 07:29:24;;;;;;;14.82;5.20;;;;;;;38.14;21.04;99013.75;4994722;28;20030;-50
2022/05/17 07:31:50;;;;;;;18.27;5.25;;;;;;;38.02;20.98;99016.72;4994749;28;20056;-50
2022/05/17 07:34:16;;;;;;;15.77;4.55;;;;;;;37.96;21.32;99019.78;5012424;28;20475;-50
2022/05/17 07:36:42;;;;;;;37.22;6.40;;;;;;;38.02;20.87;99009.28;5012319;28;20391;-49
2022/05/17 07:39:08;;;;;;;25.42;4.60;;;;;;;38.26;21.21;99015.41;5012239;28;20033;-50
2022/05/17 07:41:35;;;;;;;17.92;4.75;;;;;;;38.78;20.45;99010.72;5012313;28;20529;-53
2022/05/17 07:44:04;;;;;;;24.42;5.00;;;;;;;39.21;20.13;99012.94;4994549;28;20068;-52
2022/05/17 07:46:31;;;;;;;23.98;5.50;;;;;;;39.63;19.96;99011.56;4994548;28;20036;-53
2022/05/17 07:48:57;;;;;;;14.02;3.78;;;;;;;39.90;19.77;99009.28;4994460;28;20029;-52
2022/05/17 07:51:23;;;;;;;36.58;7.55;;;;;;;39.75;19.83;99016.69;5010841;28;20026;-52
2022/05/17 07:53:49;;;;;;;37.33;6.00;;;;;;;39.58;19.41;99011.94;4978366;28;20029;-53
2022/05/17 07:56:15;;;;;;;33.80;5.45;;;;;;;39.87;19.27;99010.06;4994197;28;20123;-53
2022/05/17 07:58:42;;;;;;;100.15;18.35;;;;;;;40.11;19.42;99009.31;5012069;28;20377;-53
2022/05/17 08:01:09;;;;;;;40.50;9.68;;;;;;;40.41;18.87;99010.13;5011990;28;20061;-53
2022/05/17 08:03:35;;;;;;;39.00;10.50;;;;;;;40.80;18.20;99006.56;5012268;28;20373;-53
2022/05/17 08:06:01;;;;;;;44.25;11.23;;;;;;;41.32;17.96;99002.09;5011308;28;20030;-52
2022/05/17 08:08:27;;;;;;;50.05;12.00;;;;;;;41.72;17.40;98997.19;4978121;28;20128;-52
2022/05/17 08:10:54;;;;;;;47.63;9.48;;;;;;;42.06;16.97;98999.34;5011860;28;20500;-52
2022/05/17 08:13:22;;;;;;;22.67;5.28;;;;;;;42.56;16.51;98998.16;5011982;28;20026;-52
2022/05/17 08:15:48;;;;;;;32.00;6.72;;;;;;;42.64;16.99;98996.91;4994572;28;20028;-53
2022/05/17 08:18:16;;;;;;;17.15;4.05;;;;;;;42.61;16.36;98999.69;4994245;28;20455;-53
2022/05/17 08:20:42;;;;;;;21.42;6.10;;;;;;;42.49;16.49;98992.69;4994150;28;20573;-52
2022/05/17 08:23:08;;;;;;;21.35;7.35;;;;;;;42.40;16.48;99001.44;4994237;28;20026;-52
2022/05/17 08:28:19;;;;;;;16.10;5.45;;;;;;;43.14;16.17;98989.25;5012081;28;20029;-52
2022/05/17 08:30:47;;;;;;;18.35;4.65;;;;;;;43.44;15.27;98994.03;4994334;28;20092;-52
2022/05/17 08:33:16;;;;;;;34.60;7.97;;;;;;;43.64;15.66;98985.84;5011673;28;20122;-53
2022/05/17 08:35:50;;;;;;;19.23;5.07;;;;;;;44.06;14.79;98989.97;5010419;28;20041;-53
2022/05/17 08:38:25;;;;;;;19.38;4.97;;;;;;;44.20;15.23;98983.44;5011790;28;20033;-53
2022/05/17 08:41:06;;;;;;;24.42;6.93;;;;;;;44.30;14.76;98980.91;5011934;28;20483;-53
2022/05/17 08:43:59;;;;;;;23.77;5.50;;;;;;;44.81;14.87;98970.50;5011653;28;20499;-52
2022/05/17 08:46:49;;;;;;;21.13;5.25;;;;;;;44.36;15.13;98970.94;5011694;28;20483;-53
2022/05/17 08:49:22;;;;;;;26.05;5.15;;;;;;;44.49;15.16;98971.88;5011493;28;20036;-53
2022/05/17 08:51:48;;;;;;;;;;;;;;;45.19;14.92;98967.38;5010673;28;20496;-53
2022/05/17 08:54:20;;;;;;;17.05;4.00;;;;;;;44.96;14.95;98971.03;5011580;28;19923;-52
2022/05/17 08:57:14;;;;;;;87.68;7.97;;;;;;;44.72;14.64;98965.53;5011466;28;20045;-53
2022/05/17 08:59:41;;;;;;;488.73;37.05;;;;;;;44.62;14.61;98972.81;5011345;28;20038;-53
2022/05/17 09:02:15;;;;;;;173.07;14.13;;;;;;;44.11;15.19;98966.59;5011410;28;20061;-52
2022/05/17 09:04:43;;;;;;;;;;;;;;;44.34;15.82;98962.25;4994355;28;20407;-52
2022/05/17 09:07:25;;;;;;;18.40;4.05;;;;;;;44.64;14.89;98961.34;5010145;28;19909;-52
2022/05/17 09:10:05;;;;;;;148.95;13.90;;;;;;;44.83;14.96;98968.06;5010134;28;20499;-52
2022/05/17 09:12:52;;;;;;;110.18;11.55;;;;;;;44.60;14.99;98952.31;5010131;28;20491;-53
2022/05/17 09:15:19;;;;;;;166.27;13.85;;;;;;;44.17;15.39;98964.94;4962078;28;20514;-53
2022/05/17 09:17:47;;;;;;;41.53;6.03;;;;;;;43.90;15.67;98961.41;4979247;28;20050;-53
2022/05/17 09:20:19;;;;;;;41.75;5.70;;;;;;;43.62;15.61;98960.59;5014734;28;20535;-53
2022/05/17 09:22:45;;;;;;;245.05;19.80;;;;;;;43.83;15.97;98953.97;4997247;28;20030;-52
2022/05/17 09:25:43;;;;;;;30.02;5.25;;;;;;;43.78;15.68;98948.94;5014747;28;20101;-52
2022/05/17 09:28:09;;;;;;;146.02;14.63;;;;;;;43.23;16.27;98959.16;4997031;28;20036;-52
2022/05/17 09:30:37;;;;;;;165.98;19.02;;;;;;;42.76;16.39;98961.66;5014641;28;20022;-52
2022/05/17 09:33:07;;;;;;;35.05;5.50;;;;;;;42.54;16.89;98955.59;5014543;28;20104;-52
2022/05/17 09:35:43;;;;;;;256.50;30.15;;;;;;;42.38;16.85;98954.16;5014432;28;20406;-52
2022/05/17 09:38:09;;;;;;;162.18;22.23;;;;;;;42.18;17.00;98956.69;5013258;28;20061;-52
2022/05/17 09:40:39;;;;;;;187.00;25.75;;;;;;;42.20;17.35;98953.50;5014362;28;20026;-53
2022/05/17 09:43:09;;;;;;;185.85;29.77;;;;;;;42.57;16.72;98949.25;4980834;28;20049;-52
2022/05/17 09:45:49;;;;;;;125.05;23.40;;;;;;;43.07;16.64;98943.19;5014290;28;20105;-53
2022/05/17 09:48:32;;;;;;;98.30;15.45;;;;;;;43.12;16.27;98941.94;5014190;28;20064;-53
2022/05/17 09:53:49;;;;;;;25.92;5.32;;;;;;;42.10;17.01;98930.38;4999809;28;20060;-52
2022/05/17 09:56:16;;;;;;;38.17;5.78;;;;;;;41.47;17.42;98925.66;5013896;28;20050;-52
2022/05/17 09:58:45;;;;;;;26.38;4.53;;;;;;;40.87;18.11;98926.72;5013638;28;20459;-52
2022/05/17 10:01:19;;;;;;;35.05;5.85;;;;;;;40.59;18.41;98936.63;5014085;28;20135;-52
2022/05/17 10:04:12;;;;;;;54.47;8.25;;;;;;;40.25;18.94;98930.75;5014026;28;20052;-52
2022/05/17 10:06:42;;;;;;;57.45;9.68;;;;;;;40.18;18.99;98928.78;4982032;28;20104;-52
2022/05/17 10:09:32;;;;;;;41.40;5.85;;;;;;;40.53;18.80;98924.44;5013878;28;20029;-53
2022/05/17 10:12:10;;;;;;;21.17;4.60;;;;;;;40.85;18.15;98920.81;5012564;28;20034;-52
2022/05/17 10:14:40;;;;;;;49.92;6.97;;;;;;;41.01;18.18;98918.41;4996213;28;20045;-52
2022/05/17 10:17:55;;;;;;;35.47;7.38;;;;;;;40.96;18.20;98918.81;5013801;28;20038;-51
2022/05/17 10:20:27;;;;;;;15.70;3.95;;;;;;;41.04;18.09;98914.06;5013662;28;20018;-52
2022/05/17 10:23:14;;;;;;;18.38;4.22;;;;;;;41.16;17.87;98910.09;5013651;28;20042;-52
2022/05/17 10:25:51;;;;;;;28.23;5.93;;;;;;;41.50;17.48;98913.06;5013582;28;20032;-52
2022/05/17 10:28:38;;;;;;;8.90;2.90;;;;;;;40.91;17.83;98917.28;5013207;28;20038;-52
2022/05/17 10:31:18;;;;;;;16.88;3.30;;;;;;;40.14;17.97;98922.50;4995889;28;20087;-51
2022/05/17 10:34:21;;;;;;;9.70;2.55;;;;;;;40.06;17.98;98921.72;4995864;28;20419;-52
2022/05/17 10:36:51;;;;;;;30.42;4.88;;;;;;;40.38;17.79;98917.41;5013354;28;20026;-52
2022/05/17 10:39:30;;;;;;;40.15;5.15;;;;;;;40.78;17.58;98907.09;4995708;28;20034;-52
2022/05/17 10:41:57;;;;;;;31.58;4.35;;;;;;;41.08;17.34;98903.81;5013578;28;20030;-52
2022/05/17 10:44:25;;;;;;;9.77;2.58;;;;;;;41.45;16.92;98911.50;5013228;28;20061;-52
2022/05/17 10:47:02;;;;;;;8.50;3.05;;;;;;;41.77;16.68;98909.75;5013205;28;20030;-52
2022/05/17 10:50:04;;;;;;;18.85;3.75;;;;;;;42.47;16.39;98901.25;4980217;28;20040;-53
2022/05/17 10:52:46;;;;;;;25.08;5.22;;;;;;;42.56;16.19;98890.53;5013198;28;20109;-52
2022/05/17 10:55:17;;;;;;;12.30;3.30;;;;;;;42.68;16.18;98894.69;4996712;28;20073;-52
2022/05/17 10:58:19;;;;;;;13.52;3.25;;;;;;;42.88;15.97;98895.69;4995353;28;20053;-53
2022/05/17 11:00:58;;;;;;;44.38;5.82;;;;;;;42.61;16.11;98884.53;4995332;28;20461;-53
2022/05/17 11:03:45;;;;;;;23.42;4.03;;;;;;;42.93;15.79;98888.13;4996499;28;20029;-52
2022/05/17 11:06:40;;;;;;;29.80;4.68;;;;;;;42.89;15.84;98882.66;5012937;28;20563;-52
2022/05/17 11:09:19;;;;;;;28.10;5.38;;;;;;;42.85;16.09;98879.13;5008883;28;20026;-53
2022/05/17 11:11:53;;;;;;;13.95;4.10;;;;;;;42.96;16.09;98870.72;4995127;28;20065;-52
2022/05/17 11:14:39;;;;;;;34.40;5.15;;;;;;;42.91;15.65;98862.91;5012721;28;20051;-53
2022/05/17 11:17:17;;;;;;;11.75;3.50;;;;;;;42.44;16.12;98863.44;4995072;28;20034;-52
2022/05/17 11:20:04;;;;;;;14.68;3.28;;;;;;;41.79;16.59;98863.25;5012710;28;20022;-52
2022/05/17 11:22:56;;;;;;;8.57;2.67;;;;;;;41.25;17.00;98866.38;4994987;28;20040;-52
2022/05/17 11:25:39;;;;;;;8.20;2.88;;;;;;;41.65;16.77;98859.41;5011224;28;20420;-52
2022/05/17 11:28:14;;;;;;;11.25;3.03;;;;;;;41.52;16.77;98856.34;4995694;28;20388;-52
2022/05/17 11:31:06;;;;;;;37.00;5.07;;;;;;;41.20;17.28;98850.28;5012398;28;20022;-51
2022/05/17 11:33:40;;;;;;;35.45;5.63;;;;;;;40.99;17.58;98856.66;4995707;28;20450;-53
2022/05/17 11:36:13;;;;;;;25.50;5.15;;;;;;;41.18;17.30;98845.19;4994936;28;20488;-52
2022/05/17 11:38:47;;;;;;;;;;;;;;;41.19;17.48;98846.72;4995185;28;20470;-53
2022/05/17 11:41:21;;;;;;;30.20;6.35;;;;;;;41.00;17.69;98845.25;5011434;28;20000;-51
2022/05/17 11:43:51;;;;;;;9.55;2.75;;;;;;;40.88;17.71;98840.22;5012320;28;20026;-52
2022/05/17 11:46:30;;;;;;;19.50;4.50;;;;;;;40.72;17.73;98829.63;5012206;28;20038;-53
2022/05/17 11:49:01;;;;;;;12.70;3.08;;;;;;;40.47;17.80;98832.50;5012100;28;20018;-52